Time;durP1;ratioP1;P1;durP2;ratioP2;P2;SDS_P1;SDS_P2;PMS_P1;PMS_P2;Temp;Humidity;BMP_temperature;BMP_pressure;BME280_temperature;BME280_humidity;BME280_pressure;Samples;Min_cycle;Max_cycle;Signal;HPM_P1;HPM_P2
2021/05/26 00:01:29;;;;;;;10.80;7.13;;;18.10;69.00;;;;;;5075696;28;20100;-41
2021/05/26 00:03:55;;;;;;;12.10;6.95;;;18.10;69.00;;;;;;5075725;28;20039;-39
2021/05/26 00:06:20;;;;;;;12.00;7.10;;;18.10;69.20;;;;;;5075557;28;20052;-39
2021/05/26 00:08:46;;;;;;;10.15;7.22;;;18.00;69.30;;;;;;5075616;28;20040;-42
2021/05/26 00:11:14;;;;;;;13.05;6.93;;;18.00;69.50;;;;;;5075734;28;20039;-39
2021/05/26 00:13:41;;;;;;;10.75;7.63;;;17.90;69.60;;;;;;5075340;28;20028;-41
2021/05/26 00:16:07;;;;;;;12.05;6.88;;;17.90;69.70;;;;;;5075262;28;20024;-39
2021/05/26 00:18:33;;;;;;;12.30;7.72;;;17.90;69.80;;;;;;5075554;28;20036;-39
2021/05/26 00:21:00;;;;;;;14.13;7.50;;;17.80;70.00;;;;;;5075409;28;20036;-41
2021/05/26 00:23:27;;;;;;;18.60;9.90;;;17.80;70.00;;;;;;5075320;28;20044;-39
2021/05/26 00:25:53;;;;;;;15.52;8.50;;;17.80;70.80;;;;;;5075278;28;20028;-39
2021/05/26 00:28:19;;;;;;;14.25;9.00;;;17.70;70.30;;;;;;5075399;28;20033;-40
2021/05/26 00:30:50;;;;;;;17.25;9.57;;;17.70;70.40;;;;;;5075254;28;20025;-40
2021/05/26 00:33:17;;;;;;;15.45;9.05;;;17.70;70.60;;;;;;5075181;28;20127;-41
2021/05/26 00:35:43;;;;;;;16.60;9.93;;;17.60;70.60;;;;;;5075059;28;20355;-39
2021/05/26 00:38:10;;;;;;;11.48;8.30;;;17.60;70.70;;;;;;5075419;28;20028;-39
2021/05/26 00:40:36;;;;;;;18.65;9.07;;;17.60;70.80;;;;;;5075160;28;20025;-40
2021/05/26 00:43:03;;;;;;;13.48;8.90;;;17.50;71.00;;;;;;5075477;28;20033;-41
2021/05/26 00:45:29;;;;;;;15.18;8.15;;;17.50;71.10;;;;;;5075372;28;20376;-41
2021/05/26 00:47:54;;;;;;;17.30;8.52;;;17.40;71.20;;;;;;5075504;28;20055;-39
2021/05/26 00:50:27;;;;;;;12.60;8.13;;;17.40;71.30;;;;;;5075197;28;20024;-41
2021/05/26 00:52:53;;;;;;;13.55;8.23;;;17.40;71.50;;;;;;5075336;28;20466;-41
2021/05/26 00:55:22;;;;;;;12.35;8.13;;;17.30;72.10;;;;;;5075043;28;20139;-41
2021/05/26 00:57:49;;;;;;;14.07;9.25;;;17.30;71.80;;;;;;5078210;28;20039;-39
2021/05/26 01:00:18;;;;;;;14.10;9.30;;;17.20;71.80;;;;;;5078560;28;20111;-39
2021/05/26 01:02:45;;;;;;;18.85;10.27;;;17.20;72.10;;;;;;5079139;28;20028;-39
2021/05/26 01:05:13;;;;;;;14.95;9.13;;;17.10;72.20;;;;;;5078818;28;20052;-39
2021/05/26 01:07:40;;;;;;;14.65;9.68;;;17.10;72.30;;;;;;5079097;28;20379;-41
2021/05/26 01:10:10;;;;;;;13.32;8.68;;;17.00;72.50;;;;;;5078669;28;20119;-39
2021/05/26 01:12:36;;;;;;;15.68;9.35;;;17.00;72.60;;;;;;5078803;28;20020;-39
2021/05/26 01:15:04;;;;;;;14.27;8.63;;;16.90;72.70;;;;;;5078568;28;20093;-40
2021/05/26 01:17:30;;;;;;;18.00;9.68;;;16.90;72.90;;;;;;5078697;28;20029;-40
2021/05/26 01:19:56;;;;;;;14.73;8.40;;;16.90;73.00;;;;;;5078168;28;20075;-39
2021/05/26 01:22:21;;;;;;;18.08;9.25;;;16.90;73.10;;;;;;5078407;28;20021;-40
2021/05/26 01:24:47;;;;;;;13.88;8.50;;;16.80;73.10;;;;;;5078308;28;20033;-41
2021/05/26 01:27:13;;;;;;;12.13;8.55;;;16.80;73.20;;;;;;5078350;28;20047;-39
2021/05/26 01:29:39;;;;;;;13.85;7.85;;;16.80;73.90;;;;;;5078423;28;20033;-39
2021/05/26 01:32:05;;;;;;;14.57;8.38;;;16.70;73.40;;;;;;5078233;28;20021;-39
2021/05/26 01:34:31;;;;;;;12.15;8.45;;;16.70;73.60;;;;;;5078275;28;20078;-39
2021/05/26 01:36:57;;;;;;;12.48;7.57;;;16.70;73.60;;;;;;5077714;28;20420;-40
2021/05/26 01:39:23;;;;;;;12.63;6.97;;;16.70;73.80;;;;;;5078619;28;20035;-39
2021/05/26 01:41:49;;;;;;;10.98;7.50;;;16.70;73.90;;;;;;5078008;28;20020;-41
2021/05/26 01:44:15;;;;;;;13.27;8.25;;;16.70;73.90;;;;;;5077814;28;20361;-40
2021/05/26 01:46:42;;;;;;;15.75;8.35;;;16.70;74.00;;;;;;5077875;28;20025;-39
2021/05/26 01:49:09;;;;;;;11.63;7.47;;;16.70;74.20;;;;;;5077647;28;20123;-39
2021/05/26 01:51:35;;;;;;;11.93;6.88;;;16.70;74.20;;;;;;5077757;28;20359;-39
2021/05/26 01:54:02;;;;;;;12.18;7.80;;;16.60;74.10;;;;;;5077069;28;20425;-39
2021/05/26 01:56:30;;;;;;;11.02;6.97;;;16.60;74.30;;;;;;5077464;28;20033;-41
2021/05/26 01:58:57;;;;;;;11.13;7.13;;;16.60;74.40;;;;;;5077547;28;20037;-39
2021/05/26 02:01:25;;;;;;;12.68;6.63;;;16.60;74.40;;;;;;5077639;28;20107;-39
2021/05/26 02:03:51;;;;;;;11.82;6.55;;;16.60;74.40;;;;;;5077303;28;20033;-42
2021/05/26 02:06:18;;;;;;;10.25;6.57;;;16.60;74.40;;;;;;5077404;28;20116;-41
2021/05/26 02:08:45;;;;;;;10.75;7.18;;;16.60;74.60;;;;;;5076805;28;20032;-39
2021/05/26 02:14:00;;;;;;;6.28;5.10;;;16.70;74.60;;;;;;5077283;28;20493;-39
2021/05/26 02:16:26;;;;;;;7.25;5.25;;;16.70;74.60;;;;;;5077143;28;20082;-41
2021/05/26 02:18:52;;;;;;;12.70;6.10;;;16.70;74.60;;;;;;5077106;28;20044;-41
2021/05/26 02:21:17;;;;;;;7.25;5.63;;;16.70;74.80;;;;;;5077505;28;20051;-40
2021/05/26 02:23:43;;;;;;;8.38;5.60;;;16.70;74.80;;;;;;5076992;28;20088;-39
2021/05/26 02:26:09;;;;;;;11.13;6.40;;;16.80;74.90;;;;;;5077035;28;20032;-41
2021/05/26 02:28:34;;;;;;;9.38;6.25;;;16.80;74.90;;;;;;5077123;28;20032;-39
2021/05/26 02:31:00;;;;;;;8.27;5.68;;;16.80;74.80;;;;;;5059060;28;20032;-39
2021/05/26 02:33:25;;;;;;;7.93;5.75;;;16.90;74.80;;;;;;5076955;28;20043;-39
2021/05/26 02:35:51;;;;;;;8.73;5.43;;;16.90;74.70;;;;;;5076951;28;20037;-39
2021/05/26 02:38:17;;;;;;;8.02;5.05;;;16.90;74.70;;;;;;5076900;28;20036;-40
2021/05/26 02:40:44;;;;;;;9.70;5.32;;;16.90;74.60;;;;;;5077037;28;20367;-41
2021/05/26 02:43:10;;;;;;;10.13;5.53;;;17.00;74.60;;;;;;5077027;28;20029;-41
2021/05/26 02:45:36;;;;;;;9.32;5.65;;;17.00;74.50;;;;;;5076550;28;20033;-39
2021/05/26 02:48:03;;;;;;;8.40;5.20;;;17.00;74.40;;;;;;5077079;28;20043;-41
2021/05/26 02:50:29;;;;;;;8.40;5.70;;;17.10;74.50;;;;;;5076695;28;20102;-39
2021/05/26 02:52:54;;;;;;;10.98;5.85;;;17.10;74.40;;;;;;5076240;28;20029;-39
2021/05/26 02:55:22;;;;;;;8.13;5.30;;;17.10;74.30;;;;;;5076833;28;20424;-39
2021/05/26 02:57:48;;;;;;;7.72;5.68;;;17.10;74.30;;;;;;5076726;28;20473;-39
2021/05/26 03:00:16;;;;;;;9.90;5.60;;;17.20;74.30;;;;;;5076437;28;20036;-39
2021/05/26 03:02:42;;;;;;;6.40;5.15;;;17.20;74.20;;;;;;5076332;28;20424;-41
2021/05/26 03:05:08;;;;;;;7.90;5.13;;;17.20;74.10;;;;;;5076272;28;20245;-39
2021/05/26 03:07:34;;;;;;;10.07;5.60;;;17.20;74.00;;;;;;5076649;28;20033;-39
2021/05/26 03:10:00;;;;;;;9.85;5.32;;;17.30;74.10;;;;;;5076473;28;20028;-39
2021/05/26 03:12:25;;;;;;;5.85;5.05;;;17.30;74.00;;;;;;5076347;28;20028;-40
2021/05/26 03:14:51;;;;;;;7.43;5.78;;;17.30;73.90;;;;;;5058567;28;20032;-39
2021/05/26 03:17:17;;;;;;;9.88;5.82;;;17.30;74.00;;;;;;5076311;28;20039;-39
2021/05/26 03:19:43;;;;;;;8.45;4.97;;;17.40;74.00;;;;;;5075242;28;20047;-39
2021/05/26 03:22:08;;;;;;;11.77;6.22;;;17.40;73.90;;;;;;5076115;28;20082;-41
2021/05/26 03:24:35;;;;;;;8.68;4.95;;;17.50;74.10;;;;;;5076164;28;20032;-43
2021/05/26 03:27:01;;;;;;;8.70;5.68;;;17.50;74.40;;;;;;5075852;28;20097;-42
2021/05/26 03:29:27;;;;;;;10.70;5.53;;;17.50;73.70;;;;;;5075806;28;20048;-41
2021/05/26 03:31:52;;;;;;;21.63;6.53;;;17.60;73.60;;;;;;5076010;28;20055;-39
2021/05/26 03:34:21;;;;;;;7.85;4.72;;;17.60;73.60;;;;;;5075963;28;20064;-39
2021/05/26 03:36:46;;;;;;;8.52;5.20;;;17.70;74.20;;;;;;5076016;28;20032;-39
2021/05/26 03:39:12;;;;;;;11.52;5.32;;;17.70;73.50;;;;;;5075754;28;20032;-40
2021/05/26 03:41:41;;;;;;;9.30;5.57;;;17.80;73.40;;;;;;5075740;28;20082;-39
2021/05/26 03:44:08;;;;;;;12.30;5.93;;;17.80;73.20;;;;;;5075886;28;20370;-40
2021/05/26 03:46:34;;;;;;;9.20;5.88;;;17.90;73.10;;;;;;5075780;28;20028;-41
2021/05/26 03:49:00;;;;;;;7.90;5.05;;;17.90;73.40;;;;;;5074624;28;20036;-40
2021/05/26 03:51:26;;;;;;;7.72;4.93;;;18.00;72.70;;;;;;5074960;28;20111;-41
2021/05/26 03:53:53;;;;;;;8.15;4.80;;;18.00;72.60;;;;;;5074711;28;20091;-41
2021/05/26 03:56:18;;;;;;;8.02;5.75;;;18.10;72.50;;;;;;5075875;28;20044;-39
2021/05/26 03:58:44;;;;;;;7.65;5.00;;;18.10;72.40;;;;;;5074901;28;20408;-39
2021/05/26 04:01:10;;;;;;;6.65;5.05;;;18.20;72.40;;;;;;5075536;28;20055;-39
2021/05/26 04:03:35;;;;;;;7.65;5.22;;;18.20;72.40;;;;;;5075266;28;20436;-40
2021/05/26 04:06:01;;;;;;;6.95;4.90;;;18.30;72.30;;;;;;5075392;28;20063;-39
2021/05/26 04:08:27;;;;;;;12.32;5.57;;;18.40;72.20;;;;;;5075400;28;20115;-39
2021/05/26 04:10:52;;;;;;;7.03;5.40;;;18.40;72.20;;;;;;5075150;28;20465;-39
2021/05/26 04:13:18;;;;;;;8.63;4.85;;;18.50;72.00;;;;;;5075228;28;20020;-39
2021/05/26 04:15:43;;;;;;;8.88;5.13;;;18.60;71.80;;;;;;5075318;28;20025;-41
2021/05/26 04:18:09;;;;;;;8.68;4.60;;;18.70;71.70;;;;;;5075481;28;20036;-41
2021/05/26 04:20:36;;;;;;;16.27;5.32;;;18.70;71.60;;;;;;5075257;28;20029;-39
2021/05/26 04:23:02;;;;;;;9.77;4.38;;;18.80;71.30;;;;;;5075522;28;20131;-41
2021/05/26 04:25:28;;;;;;;6.75;4.40;;;18.90;71.20;;;;;;5075188;28;20029;-39
2021/05/26 04:27:53;;;;;;;6.88;4.95;;;18.90;71.00;;;;;;5075630;28;20453;-41
2021/05/26 04:30:20;;;;;;;16.67;5.55;;;19.00;71.00;;;;;;5075052;28;20067;-43
2021/05/26 04:32:46;;;;;;;9.27;5.15;;;19.10;71.10;;;;;;5078494;28;20451;-41
2021/05/26 04:35:12;;;;;;;9.48;5.10;;;19.20;71.10;;;;;;5079130;28;20060;-40
2021/05/26 04:37:38;;;;;;;9.57;5.40;;;19.30;71.00;;;;;;5078741;28;20063;-41
2021/05/26 04:40:04;;;;;;;9.18;4.45;;;19.30;70.90;;;;;;5078741;28;20361;-39
2021/05/26 04:42:30;;;;;;;13.18;5.15;;;19.40;70.60;;;;;;5079149;28;20013;-39
2021/05/26 04:44:56;;;;;;;12.38;5.45;;;19.50;70.40;;;;;;5080668;28;20033;-41
2021/05/26 04:47:22;;;;;;;8.60;4.53;;;19.60;70.40;;;;;;5086840;28;20028;-41
2021/05/26 04:49:47;;;;;;;33.63;6.63;;;19.60;70.10;;;;;;5077661;28;20059;-39
2021/05/26 04:52:13;;;;;;;5.90;4.03;;;19.70;69.50;;;;;;5078275;28;20044;-39
2021/05/26 04:54:39;;;;;;;7.57;4.63;;;19.80;69.20;;;;;;5078123;28;20074;-39
2021/05/26 04:57:05;;;;;;;9.10;4.50;;;19.90;68.90;;;;;;5078358;28;20384;-39
2021/05/26 04:59:30;;;;;;;8.25;4.60;;;19.90;68.20;;;;;;5078425;28;20072;-41
2021/05/26 05:01:56;;;;;;;10.10;4.55;;;20.00;67.70;;;;;;5078297;28;20017;-39
2021/05/26 05:04:22;;;;;;;8.02;4.88;;;20.10;67.50;;;;;;5078561;28;20032;-40
2021/05/26 05:06:48;;;;;;;11.18;4.50;;;20.20;66.90;;;;;;5078073;28;20077;-40
2021/05/26 05:09:13;;;;;;;7.80;4.22;;;20.20;66.30;;;;;;5078667;28;20094;-41
2021/05/26 05:11:39;;;;;;;10.18;4.82;;;20.30;66.00;;;;;;5078206;28;20037;-40
2021/05/26 05:14:05;;;;;;;17.73;6.80;;;20.40;65.90;;;;;;5078961;28;20028;-41
2021/05/26 05:16:34;;;;;;;7.40;3.83;;;20.40;65.90;;;;;;5090223;28;20025;-39
2021/05/26 05:19:00;;;;;;;10.15;5.63;;;20.50;65.70;;;;;;5078059;28;20040;-41
2021/05/26 05:21:26;;;;;;;16.77;4.93;;;20.60;65.00;;;;;;5077927;28;20405;-41
2021/05/26 05:23:51;;;;;;;12.60;3.70;;;20.60;64.70;;;;;;5085425;28;20319;-39
2021/05/26 05:26:17;;;;;;;17.77;3.75;;;20.70;63.60;;;;;;5086159;28;20035;-39
2021/05/26 05:28:43;;;;;;;8.00;4.35;;;20.70;63.50;;;;;;5077331;28;20432;-39
2021/05/26 05:31:09;;;;;;;7.18;3.00;;;20.80;63.50;;;;;;5078083;28;20040;-40
2021/05/26 05:33:35;;;;;;;4.68;2.72;;;20.80;62.40;;;;;;5079031;28;20297;-41
2021/05/26 05:36:01;;;;;;;7.88;3.03;;;20.90;61.90;;;;;;5096518;28;20020;-43
2021/05/26 05:38:26;;;;;;;3.60;3.00;;;20.90;61.30;;;;;;5093042;28;20077;-42
2021/05/26 05:40:52;;;;;;;4.88;3.45;;;20.90;60.80;;;;;;5097611;28;20024;-41
2021/05/26 05:43:18;;;;;;;4.80;3.28;;;21.00;60.80;;;;;;5096456;28;20024;-40
2021/05/26 05:45:44;;;;;;;6.32;3.90;;;21.00;60.80;;;;;;5097331;28;20032;-39
2021/05/26 05:48:10;;;;;;;5.90;3.50;;;21.00;61.60;;;;;;5097865;28;20036;-40
2021/05/26 05:50:36;;;;;;;14.40;4.60;;;21.10;61.20;;;;;;5077974;28;20060;-40
2021/05/26 05:53:04;;;;;;;6.68;3.20;;;21.10;61.20;;;;;;5072764;28;20036;-39
2021/05/26 05:55:30;;;;;;;4.53;2.53;;;21.20;61.40;;;;;;5076843;28;20510;-40
2021/05/26 05:58:01;;;;;;;4.03;2.72;;;21.20;60.80;;;;;;5088556;28;20040;-41
2021/05/26 06:00:27;;;;;;;7.63;3.30;;;21.30;59.90;;;;;;5087844;28;20424;-43
2021/05/26 06:02:52;;;;;;;3.88;2.63;;;21.40;59.90;;;;;;5076342;28;20043;-40
2021/05/26 06:05:18;;;;;;;4.13;2.63;;;21.50;59.40;;;;;;5076775;28;20024;-40
2021/05/26 06:07:44;;;;;;;10.73;3.05;;;21.50;58.50;;;;;;5076497;28;20032;-40
2021/05/26 06:10:10;;;;;;;10.52;3.63;;;21.60;56.70;;;;;;5076744;28;20078;-39
2021/05/26 06:12:36;;;;;;;5.32;3.17;;;21.60;56.20;;;;;;5079395;28;20380;-39
2021/05/26 06:15:03;;;;;;;11.85;3.00;;;21.70;56.50;;;;;;5076638;28;20036;-41
2021/05/26 06:17:29;;;;;;;6.10;3.15;;;21.80;56.80;;;;;;5087774;28;20032;-42
2021/05/26 06:19:55;;;;;;;6.07;2.88;;;21.80;56.40;;;;;;5097215;28;20043;-39
2021/05/26 06:22:21;;;;;;;5.65;3.03;;;21.90;56.20;;;;;;5094447;28;20032;-40
2021/05/26 06:24:47;;;;;;;6.90;3.90;;;21.90;56.20;;;;;;5091165;28;20046;-42
2021/05/26 06:27:13;;;;;;;7.35;3.63;;;22.00;56.10;;;;;;5096315;28;20028;-39
2021/05/26 06:29:39;;;;;;;6.18;4.28;;;22.10;56.40;;;;;;5095832;28;20032;-39
2021/05/26 06:32:05;;;;;;;8.70;4.28;;;22.10;56.70;;;;;;5096329;28;20103;-40
2021/05/26 06:34:30;;;;;;;17.02;5.40;;;22.20;56.90;;;;;;5093103;28;20033;-42
2021/05/26 06:36:56;;;;;;;7.43;3.95;;;22.30;57.20;;;;;;5075605;28;20094;-40
2021/05/26 06:39:22;;;;;;;9.00;3.88;;;22.30;57.10;;;;;;5079642;28;20036;-39
2021/05/26 06:41:48;;;;;;;13.77;4.90;;;22.40;57.20;;;;;;5083588;28;20036;-43
2021/05/26 06:44:13;;;;;;;8.38;3.95;;;22.50;57.30;;;;;;5076256;28;20025;-43
2021/05/26 06:46:40;;;;;;;9.98;4.50;;;22.50;57.60;;;;;;5076130;28;20141;-42
2021/05/26 06:49:07;;;;;;;4.45;3.53;;;22.50;57.50;;;;;;5079717;28;20067;-41
2021/05/26 06:51:32;;;;;;;8.65;4.15;;;22.60;57.30;;;;;;5096730;28;20028;-43
2021/05/26 06:53:58;;;;;;;7.72;4.20;;;22.60;57.10;;;;;;5095253;28;20094;-40
2021/05/26 06:56:24;;;;;;;9.48;3.88;;;22.70;57.50;;;;;;5096449;28;20040;-40
2021/05/26 06:58:49;;;;;;;3.88;3.42;;;22.70;57.60;;;;;;5092288;28;20040;-40
2021/05/26 07:01:15;;;;;;;32.05;6.00;;;22.80;57.30;;;;;;5075910;28;20138;-41
2021/05/26 07:03:41;;;;;;;9.60;4.72;;;22.80;57.40;;;;;;5075993;28;20035;-42
2021/05/26 07:06:07;;;;;;;8.38;4.10;;;22.80;57.30;;;;;;5075853;28;20036;-42
2021/05/26 07:08:32;;;;;;;9.88;5.28;;;22.90;57.20;;;;;;5075114;28;20388;-42
2021/05/26 07:10:58;;;;;;;8.20;4.43;;;22.90;57.60;;;;;;5075480;28;20086;-41
2021/05/26 07:13:24;;;;;;;5.75;4.20;;;22.90;57.30;;;;;;5094530;28;20102;-41
2021/05/26 07:15:50;;;;;;;7.10;4.68;;;23.00;56.90;;;;;;5095831;28;20035;-42
2021/05/26 07:18:15;;;;;;;10.10;4.68;;;23.00;57.20;;;;;;5095616;28;20412;-42
2021/05/26 07:20:45;;;;;;;9.15;4.25;;;23.00;56.80;;;;;;5076428;28;20309;-42
2021/05/26 07:23:11;;;;;;;10.48;6.13;;;23.10;56.90;;;;;;5075235;28;20107;-42
2021/05/26 07:25:38;;;;;;;10.43;5.35;;;23.10;56.60;;;;;;5075767;28;20040;-41
2021/05/26 07:28:04;;;;;;;11.50;6.18;;;23.10;56.60;;;;;;5074806;28;20032;-41
2021/05/26 07:30:30;;;;;;;13.13;5.82;;;23.20;56.80;;;;;;5075331;28;20417;-41
2021/05/26 07:32:56;;;;;;;7.25;4.55;;;23.20;56.20;;;;;;5075077;28;20362;-43
2021/05/26 07:35:22;;;;;;;8.25;4.43;;;23.20;56.40;;;;;;5075374;28;20043;-43
2021/05/26 07:37:48;;;;;;;41.17;21.45;;;23.20;56.40;;;;;;5074766;28;20416;-41
2021/05/26 07:40:14;;;;;;;10.82;6.50;;;23.20;56.40;;;;;;5075034;28;20077;-42
2021/05/26 07:42:41;;;;;;;9.15;5.18;;;23.30;56.80;;;;;;5074988;28;20401;-43
2021/05/26 07:45:07;;;;;;;7.97;4.78;;;23.40;56.70;;;;;;5074838;28;20111;-42
2021/05/26 07:47:35;;;;;;;6.32;5.00;;;23.40;56.50;;;;;;5075447;28;20033;-42
2021/05/26 07:50:01;;;;;;;5.97;4.68;;;23.50;57.00;;;;;;5074999;28;20089;-41
2021/05/26 07:52:28;;;;;;;11.38;4.97;;;23.50;56.80;;;;;;5074543;28;20032;-41
2021/05/26 07:54:54;;;;;;;14.82;6.32;;;23.60;56.70;;;;;;5074747;28;20053;-42
2021/05/26 07:57:20;;;;;;;11.70;5.88;;;23.60;56.70;;;;;;5075161;28;20397;-43
2021/05/26 07:59:46;;;;;;;5.63;4.70;;;23.60;56.60;;;;;;5074366;28;20111;-43
2021/05/26 08:02:13;;;;;;;10.73;5.60;;;23.60;56.80;;;;;;5074209;28;20074;-42
2021/05/26 08:04:39;;;;;;;6.28;5.30;;;23.70;57.50;;;;;;5073887;28;20029;-42
2021/05/26 08:07:08;;;;;;;10.10;5.45;;;23.80;57.10;;;;;;5078941;28;20020;-42
2021/05/26 08:09:34;;;;;;;10.77;7.07;;;23.80;56.70;;;;;;5079534;28;20435;-42
2021/05/26 08:11:59;;;;;;;8.20;5.32;;;23.90;57.00;;;;;;5080892;28;20415;-41
2021/05/26 08:14:25;;;;;;;8.40;5.07;;;23.90;56.20;;;;;;5079236;28;20086;-42
2021/05/26 08:16:51;;;;;;;13.95;4.78;;;23.90;56.10;;;;;;5080922;28;20036;-41
2021/05/26 08:19:17;;;;;;;7.25;5.38;;;23.80;55.40;;;;;;5080199;28;20047;-45
2021/05/26 08:21:43;;;;;;;6.90;5.07;;;23.80;55.90;;;;;;5086673;28;20024;-42
2021/05/26 08:24:09;;;;;;;8.25;5.30;;;23.80;55.50;;;;;;5086118;28;20044;-42
2021/05/26 08:26:35;;;;;;;6.85;4.63;;;23.80;55.20;;;;;;5080667;28;20285;-42
2021/05/26 08:29:03;;;;;;;12.75;5.88;;;23.80;55.50;;;;;;5080695;28;20036;-42
2021/05/26 08:31:30;;;;;;;6.53;5.60;;;23.80;55.70;;;;;;5080667;28;20338;-41
2021/05/26 08:33:56;;;;;;;6.88;4.90;;;23.80;55.80;;;;;;5079875;28;20028;-42
2021/05/26 08:36:22;;;;;;;9.55;4.93;;;23.90;55.40;;;;;;5080653;28;20033;-41
2021/05/26 08:38:47;;;;;;;9.32;5.25;;;23.90;55.30;;;;;;5080877;28;20075;-42
2021/05/26 08:41:15;;;;;;;8.30;4.95;;;24.00;55.40;;;;;;5080261;28;20074;-41
2021/05/26 08:43:42;;;;;;;6.40;5.28;;;24.10;55.50;;;;;;5080590;28;20162;-41
2021/05/26 08:46:09;;;;;;;8.73;4.70;;;24.10;54.80;;;;;;5080358;28;20070;-41
2021/05/26 08:48:36;;;;;;;7.80;5.35;;;24.10;55.00;;;;;;5080393;28;20033;-41
2021/05/26 08:51:03;;;;;;;7.07;4.85;;;24.20;55.20;;;;;;5079190;28;20466;-42
2021/05/26 08:53:29;;;;;;;6.55;4.53;;;24.30;54.90;;;;;;5079996;28;20059;-42
2021/05/26 08:55:55;;;;;;;7.38;4.93;;;24.40;54.80;;;;;;5080795;28;20028;-43
2021/05/26 08:58:21;;;;;;;10.77;5.10;;;24.50;54.50;;;;;;5080413;28;20029;-41
2021/05/26 09:00:48;;;;;;;8.00;5.03;;;24.60;53.70;;;;;;5081207;28;20036;-42
2021/05/26 09:03:14;;;;;;;6.63;4.60;;;24.70;53.40;;;;;;5081416;28;20032;-42
2021/05/26 09:05:42;;;;;;;9.63;5.65;;;24.80;53.10;;;;;;5080659;28;20024;-42
2021/05/26 09:08:24;;;;;;;5.82;4.38;;;24.90;52.70;;;;;;5080373;28;20094;-42
2021/05/26 09:10:55;;;;;;;5.50;4.43;;;25.00;52.50;;;;;;5082485;28;20046;-42
2021/05/26 09:13:34;;;;;;;8.73;4.45;;;25.00;52.40;;;;;;5091872;28;20035;-41
2021/05/26 09:16:02;;;;;;;8.13;4.70;;;25.10;52.00;;;;;;5084052;28;20185;-41
2021/05/26 09:18:27;;;;;;;6.85;4.63;;;25.20;51.80;;;;;;5087982;28;20033;-42
2021/05/26 09:20:55;;;;;;;8.38;5.05;;;25.20;51.80;;;;;;5076742;28;20115;-41
2021/05/26 09:23:30;;;;;;;7.22;5.00;;;25.20;51.90;;;;;;5077186;28;20051;-42
2021/05/26 09:25:59;;;;;;;7.32;4.68;;;25.30;51.80;;;;;;5076877;28;20023;-42
2021/05/26 09:28:36;;;;;;;7.57;5.55;;;25.20;51.80;;;;;;5077250;28;20128;-41
2021/05/26 09:31:05;;;;;;;9.27;5.05;;;25.20;51.50;;;;;;5077361;28;20443;-41
2021/05/26 09:33:38;;;;;;;7.05;4.70;;;25.20;51.70;;;;;;5077966;28;20040;-41
2021/05/26 09:36:15;;;;;;;5.00;4.50;;;25.20;52.00;;;;;;5075849;28;20032;-42
2021/05/26 09:38:47;;;;;;;7.60;4.65;;;25.20;52.20;;;;;;5076443;28;20064;-41
2021/05/26 09:41:28;;;;;;;10.48;5.50;;;25.20;52.80;;;;;;5076761;28;20078;-42
2021/05/26 09:44:06;;;;;;;11.95;9.40;;;25.30;51.50;;;;;;5076363;28;20040;-41
2021/05/26 09:46:34;;;;;;;8.85;4.93;;;25.30;50.70;;;;;;5077380;28;20412;-42
2021/05/26 09:49:20;;;;;;;5.00;3.90;;;25.40;50.70;;;;;;5077155;28;20067;-42
2021/05/26 09:51:51;;;;;;;4.72;3.65;;;25.40;50.90;;;;;;5077209;28;20032;-42
2021/05/26 09:54:24;;;;;;;8.10;4.78;;;25.50;51.00;;;;;;5077095;28;20054;-43
2021/05/26 09:57:03;;;;;;;5.43;4.75;;;25.50;50.80;;;;;;5077160;28;20037;-42
2021/05/26 09:59:31;;;;;;;7.45;5.25;;;25.60;50.30;;;;;;5077278;28;20036;-43
2021/05/26 10:01:58;;;;;;;6.80;4.18;;;25.60;49.50;;;;;;5077494;28;20040;-43
2021/05/26 10:04:25;;;;;;;7.00;3.92;;;25.70;49.50;;;;;;5076945;28;20044;-42
2021/05/26 10:06:54;;;;;;;7.75;4.57;;;25.70;49.50;;;;;;5077016;28;20047;-42
2021/05/26 10:09:24;;;;;;;10.77;5.35;;;25.70;49.60;;;;;;5072468;28;20043;-41
2021/05/26 10:11:53;;;;;;;;;;;25.80;49.50;;;;;;5077283;28;20032;-42
2021/05/26 10:14:20;;;;;;;11.82;4.15;;;25.80;50.00;;;;;;5076169;28;19915;-42
2021/05/26 10:16:51;;;;;;;5.95;3.80;;;25.90;50.10;;;;;;5076827;28;20035;-42
2021/05/26 10:19:17;;;;;;;9.25;4.30;;;25.90;50.00;;;;;;5076248;28;20041;-42
2021/05/26 10:21:47;;;;;;;10.45;5.05;;;26.00;49.50;;;;;;5076756;28;20032;-43
2021/05/26 10:24:18;;;;;;;13.23;5.05;;;26.10;49.60;;;;;;5075830;28;20024;-42
2021/05/26 10:27:07;;;;;;;4.85;3.63;;;26.20;49.70;;;;;;5074918;28;20032;-42
2021/05/26 10:29:34;;;;;;;9.50;4.20;;;26.30;48.50;;;;;;5080305;28;20036;-42
2021/05/26 10:32:02;;;;;;;9.60;4.57;;;26.40;48.60;;;;;;5082232;28;20036;-43
2021/05/26 10:34:43;;;;;;;5.03;4.05;;;26.50;48.30;;;;;;5075995;28;20041;-41
2021/05/26 10:37:30;;;;;;;6.82;3.70;;;26.60;47.80;;;;;;5076530;28;20376;-43
2021/05/26 10:39:56;;;;;;;10.10;4.35;;;26.70;47.70;;;;;;5075991;28;20068;-41
2021/05/26 10:42:32;;;;;;;6.95;4.10;;;26.70;46.90;;;;;;5076346;28;20059;-41
2021/05/26 10:45:09;;;;;;;6.22;3.55;;;26.80;47.40;;;;;;5075614;28;20032;-42
2021/05/26 10:47:38;;;;;;;4.65;3.55;;;26.80;47.00;;;;;;5076674;28;20086;-43
2021/05/26 10:50:17;;;;;;;7.25;3.97;;;26.90;47.00;;;;;;5074694;28;20082;-41
2021/05/26 10:52:55;;;;;;;4.65;3.90;;;26.90;47.10;;;;;;5076536;28;20016;-42
2021/05/26 10:55:39;;;;;;;4.80;3.60;;;27.00;46.20;;;;;;5075648;28;20492;-44
2021/05/26 10:58:31;;;;;;;6.88;3.97;;;27.10;46.20;;;;;;5070692;28;20078;-42
2021/05/26 11:00:56;;;;;;;7.68;3.70;;;27.20;46.40;;;;;;5078747;28;20075;-41
2021/05/26 11:03:38;;;;;;;6.00;4.03;;;27.30;46.60;;;;;;5075956;28;20060;-42
2021/05/26 11:06:13;;;;;;;6.13;3.80;;;27.40;45.70;;;;;;5075668;28;20021;-43
2021/05/26 11:08:43;;;;;;;9.35;6.18;;;27.50;46.00;;;;;;5077922;28;20036;-41
2021/05/26 11:11:45;;;;;;;5.20;3.80;;;27.60;47.40;;;;;;5075744;28;20044;-42
2021/05/26 11:14:13;;;;;;;8.63;4.18;;;27.70;49.40;;;;;;5075786;28;20047;-42
2021/05/26 11:16:45;;;;;;;9.00;5.32;;;27.80;50.30;;;;;;5095194;28;20412;-42
2021/05/26 11:19:13;;;;;;;7.10;3.78;;;27.80;47.90;;;;;;5095908;28;20088;-41
2021/05/26 11:21:40;;;;;;;3.55;3.25;;;27.90;45.10;;;;;;5095973;28;20396;-42
2021/05/26 11:24:07;;;;;;;4.97;3.97;;;27.90;44.70;;;;;;5095124;28;20069;-41
2021/05/26 11:26:34;;;;;;;5.18;3.58;;;28.00;44.60;;;;;;5095977;28;20374;-44
2021/05/26 11:29:00;;;;;;;3.75;3.28;;;28.10;43.70;;;;;;5094926;28;20044;-43
2021/05/26 11:31:25;;;;;;;4.50;3.20;;;28.10;43.80;;;;;;5095666;28;20461;-42
2021/05/26 11:33:59;;;;;;;7.50;3.55;;;28.20;43.70;;;;;;5095644;28;20085;-43
2021/05/26 11:36:40;;;;;;;11.80;3.72;;;28.30;43.60;;;;;;5094173;28;20035;-42
2021/05/26 11:39:15;;;;;;;10.50;3.60;;;28.50;42.20;;;;;;5074869;28;20124;-42
2021/05/26 11:41:41;;;;;;;6.35;3.30;;;28.60;41.60;;;;;;5073392;28;20420;-44
2021/05/26 11:44:06;;;;;;;8.65;3.53;;;28.70;41.80;;;;;;5074748;28;20043;-42
2021/05/26 11:46:32;;;;;;;4.53;2.70;;;28.80;41.90;;;;;;5075195;28;20056;-44
2021/05/26 11:48:58;;;;;;;2.85;2.60;;;29.00;41.00;;;;;;5074295;28;20897;-42
2021/05/26 11:51:24;;;;;;;4.88;2.80;;;29.20;40.70;;;;;;5075315;28;20033;-41
2021/05/26 11:53:55;;;;;;;3.42;2.38;;;29.30;40.20;;;;;;5074580;28;20388;-42
2021/05/26 11:56:22;;;;;;;4.18;2.80;;;29.50;40.20;;;;;;5073965;28;20316;-42
2021/05/26 11:58:48;;;;;;;6.05;3.58;;;29.60;40.00;;;;;;5074483;28;20040;-42
2021/05/26 12:01:14;;;;;;;7.65;3.63;;;29.70;39.60;;;;;;5075212;28;20310;-42
2021/05/26 12:03:41;;;;;;;5.68;2.70;;;29.70;39.30;;;;;;5074725;28;20029;-41
2021/05/26 12:06:07;;;;;;;9.57;4.07;;;29.80;39.20;;;;;;5074959;28;20039;-41
2021/05/26 12:08:41;;;;;;;4.25;2.90;;;29.80;38.90;;;;;;5074615;28;20032;-43
2021/05/26 12:11:14;;;;;;;6.80;2.50;;;29.80;38.40;;;;;;5074883;28;20320;-41
2021/05/26 12:13:44;;;;;;;2.90;2.40;;;29.70;38.30;;;;;;5074675;28;20036;-42
2021/05/26 12:16:18;;;;;;;7.85;3.55;;;29.70;37.50;;;;;;5074373;28;20043;-41
2021/05/26 12:19:00;;;;;;;10.15;3.60;;;29.60;36.80;;;;;;5074234;28;20040;-41
2021/05/26 12:21:28;;;;;;;8.95;3.45;;;29.50;37.10;;;;;;5071583;28;20499;-42
2021/05/26 12:24:14;;;;;;;27.02;5.47;;;29.50;40.40;;;;;;5071598;28;20033;-42
2021/05/26 12:26:46;;;;;;;11.95;3.90;;;29.50;40.20;;;;;;5074499;28;20100;-41
2021/05/26 12:29:12;;;;;;;8.07;7.10;;;29.40;40.40;;;;;;5074262;28;20029;-42
2021/05/26 12:31:41;;;;;;;3.88;3.05;;;29.40;41.90;;;;;;5074518;28;20423;-44
2021/05/26 12:34:15;;;;;;;3.15;2.30;;;29.40;40.10;;;;;;5074721;28;20432;-43
2021/05/26 12:36:53;;;;;;;8.52;2.25;;;29.30;38.30;;;;;;5074183;28;20044;-39
2021/05/26 12:39:26;;;;;;;4.32;2.35;;;29.20;38.60;;;;;;5074245;28;20043;-39
2021/05/26 12:41:53;;;;;;;2.50;2.30;;;29.10;38.80;;;;;;5074383;28;20059;-43
2021/05/26 12:44:23;;;;;;;7.53;4.20;;;29.00;39.00;;;;;;5074397;28;20104;-49
2021/05/26 12:46:52;;;;;;;3.60;2.90;;;28.90;38.90;;;;;;5074340;28;20323;-47
2021/05/26 12:50:03;;;;;;;3.88;2.20;;;28.80;39.20;;;;;;5074756;28;20086;-40